sensor_id;sensor_type;location;lat;lon;timestamp;P1;durP1;ratioP1;P2;durP2;ratioP2
15498;SDS011;7851;52.260;6.030;2023-06-24T00:03:37;8.2;;;7.5;;
15498;SDS011;7851;52.260;6.030;2023-06-24T00:03:37;8.2;;;6.9;;
15498;SDS011;7851;52.260;6.030;2023-06-24T00:03:37;8.3;;;7.5;;
15498;SDS011;7851;52.260;6.030;2023-06-24T00:04:16;9.1;;;8.2;;
15498;SDS011;7851;52.260;6.030;2023-06-24T00:05:16;8.4;;;7.7;;
15498;SDS011;7851;52.260;6.030;2023-06-24T00:06:16;8.6;;;7.9;;
15498;SDS011;7851;52.260;6.030;2023-06-24T00:07:16;8.7;;;7.5;;
15498;SDS011;7851;52.260;6.030;2023-06-24T00:08:16;9.7;;;8.4;;
15498;SDS011;7851;52.260;6.030;2023-06-24T00:09:16;8.5;;;7.8;;
15498;SDS011;7851;52.260;6.030;2023-06-24T00:10:16;9;;;8.1;;
15498;SDS011;7851;52.260;6.030;2023-06-24T00:11:16;9.2;;;8.3;;
15498;SDS011;7851;52.260;6.030;2023-06-24T00:12:16;7.7;;;6.9;;
15498;SDS011;7851;52.260;6.030;2023-06-24T00:13:16;7.7;;;7.1;;
15498;SDS011;7851;52.260;6.030;2023-06-24T00:14:16;9.1;;;7.5;;
15498;SDS011;7851;52.260;6.030;2023-06-24T00:15:16;8.8;;;8;;
15498;SDS011;7851;52.260;6.030;2023-06-24T00:16:16;8.9;;;8.2;;
15498;SDS011;7851;52.260;6.030;2023-06-24T00:17:16;8.9;;;8.1;;
15498;SDS011;7851;52.260;6.030;2023-06-24T00:18:16;8.7;;;7.9;;
15498;SDS011;7851;52.260;6.030;2023-06-24T00:19:18;8.5;;;7.7;;
15498;SDS011;7851;52.260;6.030;2023-06-24T00:20:16;9.1;;;8.2;;
15498;SDS011;7851;52.260;6.030;2023-06-24T00:21:16;9.1;;;8.3;;
15498;SDS011;7851;52.260;6.030;2023-06-24T00:22:16;9.9;;;8.9;;
15498;SDS011;7851;52.260;6.030;2023-06-24T00:23:17;9.7;;;8.7;;
15498;SDS011;7851;52.260;6.030;2023-06-24T00:24:17;12.5;;;8.9;;
15498;SDS011;7851;52.260;6.030;2023-06-24T00:25:16;9.4;;;8.3;;
15498;SDS011;7851;52.260;6.030;2023-06-24T00:26:16;10;;;8.7;;
15498;SDS011;7851;52.260;6.030;2023-06-24T00:27:16;10;;;9;;
15498;SDS011;7851;52.260;6.030;2023-06-24T00:28:16;11.1;;;9.3;;
15498;SDS011;7851;52.260;6.030;2023-06-24T00:29:16;9.3;;;8.5;;
15498;SDS011;7851;52.260;6.030;2023-06-24T00:30:16;9.6;;;8.3;;
15498;SDS011;7851;52.260;6.030;2023-06-24T00:31:16;11.7;;;8.9;;
15498;SDS011;7851;52.260;6.030;2023-06-24T00:32:16;11;;;9.4;;
15498;SDS011;7851;52.260;6.030;2023-06-24T00:33:16;9.8;;;8.8;;
15498;SDS011;7851;52.260;6.030;2023-06-24T00:34:16;9;;;8.1;;
15498;SDS011;7851;52.260;6.030;2023-06-24T00:35:17;9.2;;;8.4;;
15498;SDS011;7851;52.260;6.030;2023-06-24T00:36:16;10.3;;;8.7;;
15498;SDS011;7851;52.260;6.030;2023-06-24T00:37:16;8.4;;;7.7;;
15498;SDS011;7851;52.260;6.030;2023-06-24T00:38:16;9.7;;;8.7;;
15498;SDS011;7851;52.260;6.030;2023-06-24T00:39:16;11;;;8.3;;
15498;SDS011;7851;52.260;6.030;2023-06-24T00:40:16;9.5;;;8.5;;
15498;SDS011;7851;52.260;6.030;2023-06-24T00:41:16;9.2;;;8.4;;
15498;SDS011;7851;52.260;6.030;2023-06-24T00:42:16;9.5;;;8.2;;
15498;SDS011;7851;52.260;6.030;2023-06-24T00:43:16;9.7;;;8.7;;
15498;SDS011;7851;52.260;6.030;2023-06-24T00:44:16;9.2;;;8.2;;
15498;SDS011;7851;52.260;6.030;2023-06-24T00:45:16;9;;;8.1;;
15498;SDS011;7851;52.260;6.030;2023-06-24T00:46:16;8.8;;;8;;
15498;SDS011;7851;52.260;6.030;2023-06-24T00:47:16;9.1;;;8.3;;
15498;SDS011;7851;52.260;6.030;2023-06-24T00:48:16;9.2;;;8.3;;
15498;SDS011;7851;52.260;6.030;2023-06-24T00:49:16;9.6;;;8.7;;
15498;SDS011;7851;52.260;6.030;2023-06-24T00:50:16;9.8;;;8.8;;
15498;SDS011;7851;52.260;6.030;2023-06-24T00:51:16;9.4;;;8.4;;
15498;SDS011;7851;52.260;6.030;2023-06-24T00:52:16;9.6;;;8.6;;
15498;SDS011;7851;52.260;6.030;2023-06-24T00:53:16;9.7;;;8.7;;
15498;SDS011;7851;52.260;6.030;2023-06-24T00:54:16;9.8;;;8.9;;
15498;SDS011;7851;52.260;6.030;2023-06-24T00:55:16;9.7;;;8.8;;
15498;SDS011;7851;52.260;6.030;2023-06-24T00:56:16;10.1;;;9.2;;
15498;SDS011;7851;52.260;6.030;2023-06-24T00:57:16;8.9;;;8.1;;
15498;SDS011;7851;52.260;6.030;2023-06-24T00:58:16;10.3;;;7.9;;
15498;SDS011;7851;52.260;6.030;2023-06-24T00:59:16;8.9;;;8;;
15498;SDS011;7851;52.260;6.030;2023-06-24T01:00:17;9.5;;;8.5;;
15498;SDS011;7851;52.260;6.030;2023-06-24T01:01:16;10.1;;;9.2;;
15498;SDS011;7851;52.260;6.030;2023-06-24T01:02:16;10.3;;;9.4;;
15498;SDS011;7851;52.260;6.030;2023-06-24T01:03:16;10.5;;;9.4;;
15498;SDS011;7851;52.260;6.030;2023-06-24T01:04:16;10.4;;;9.4;;
15498;SDS011;7851;52.260;6.030;2023-06-24T01:05:16;9.5;;;8.6;;
15498;SDS011;7851;52.260;6.030;2023-06-24T01:06:16;12.7;;;9.2;;
15498;SDS011;7851;52.260;6.030;2023-06-24T01:07:16;10.7;;;9.6;;
15498;SDS011;7851;52.260;6.030;2023-06-24T01:08:16;10;;;9.1;;
15498;SDS011;7851;52.260;6.030;2023-06-24T01:09:16;10.5;;;9.5;;
15498;SDS011;7851;52.260;6.030;2023-06-24T01:10:16;11.5;;;10.2;;
15498;SDS011;7851;52.260;6.030;2023-06-24T01:11:16;11.1;;;9.6;;
15498;SDS011;7851;52.260;6.030;2023-06-24T01:12:16;9.5;;;8.5;;
15498;SDS011;7851;52.260;6.030;2023-06-24T01:13:16;10.5;;;9.5;;
15498;SDS011;7851;52.260;6.030;2023-06-24T01:14:16;9.7;;;8.9;;
15498;SDS011;7851;52.260;6.030;2023-06-24T01:15:17;10.2;;;9.2;;
15498;SDS011;7851;52.260;6.030;2023-06-24T01:16:18;9.6;;;8.7;;
15498;SDS011;7851;52.260;6.030;2023-06-24T01:17:17;10.3;;;9.2;;
15498;SDS011;7851;52.260;6.030;2023-06-24T01:18:18;9.6;;;8.7;;
15498;SDS011;7851;52.260;6.030;2023-06-24T01:19:22;10.8;;;8.5;;
15498;SDS011;7851;52.260;6.030;2023-06-24T01:20:18;10.4;;;9.2;;
15498;SDS011;7851;52.260;6.030;2023-06-24T01:21:18;8.4;;;7.6;;
15498;SDS011;7851;52.260;6.030;2023-06-24T01:22:19;7.4;;;6.5;;
15498;SDS011;7851;52.260;6.030;2023-06-24T01:23:31;7.3;;;6.7;;
15498;SDS011;7851;52.260;6.030;2023-06-24T01:24:23;12.7;;;7.2;;
15498;SDS011;7851;52.260;6.030;2023-06-24T01:25:20;8.1;;;7.3;;
15498;SDS011;7851;52.260;6.030;2023-06-24T01:26:20;8.2;;;7.5;;
15498;SDS011;7851;52.260;6.030;2023-06-24T01:27:19;8.2;;;7.5;;
15498;SDS011;7851;52.260;6.030;2023-06-24T01:29:20;9;;;8.1;;
15498;SDS011;7851;52.260;6.030;2023-06-24T01:30:25;9.5;;;8.6;;
15498;SDS011;7851;52.260;6.030;2023-06-24T01:31:22;8.6;;;7.8;;
15498;SDS011;7851;52.260;6.030;2023-06-24T01:32:18;9.1;;;8.3;;
15498;SDS011;7851;52.260;6.030;2023-06-24T01:33:19;8.9;;;8;;
15498;SDS011;7851;52.260;6.030;2023-06-24T01:34:19;9.4;;;8.5;;
15498;SDS011;7851;52.260;6.030;2023-06-24T01:35:18;8.6;;;7.9;;
15498;SDS011;7851;52.260;6.030;2023-06-24T01:36:18;10;;;9;;
15498;SDS011;7851;52.260;6.030;2023-06-24T01:37:17;8.7;;;7.9;;
15498;SDS011;7851;52.260;6.030;2023-06-24T01:38:18;9.8;;;7.8;;
15498;SDS011;7851;52.260;6.030;2023-06-24T01:39:16;9.4;;;8.4;;
15498;SDS011;7851;52.260;6.030;2023-06-24T01:40:20;9.3;;;8.3;;
15498;SDS011;7851;52.260;6.030;2023-06-24T01:41:18;8.6;;;7.8;;
15498;SDS011;7851;52.260;6.030;2023-06-24T01:42:16;8.5;;;7.8;;
15498;SDS011;7851;52.260;6.030;2023-06-24T01:43:16;8.9;;;8;;
15498;SDS011;7851;52.260;6.030;2023-06-24T01:44:16;9;;;8.1;;
15498;SDS011;7851;52.260;6.030;2023-06-24T01:45:18;8.3;;;7.5;;
15498;SDS011;7851;52.260;6.030;2023-06-24T01:46:16;8.5;;;7.7;;
15498;SDS011;7851;52.260;6.030;2023-06-24T01:47:17;7.3;;;6.6;;
15498;SDS011;7851;52.260;6.030;2023-06-24T01:48:18;7.2;;;6.6;;
15498;SDS011;7851;52.260;6.030;2023-06-24T01:49:16;6.9;;;6.3;;
15498;SDS011;7851;52.260;6.030;2023-06-24T01:50:16;7.9;;;7.2;;
15498;SDS011;7851;52.260;6.030;2023-06-24T01:51:17;8.9;;;7.6;;
15498;SDS011;7851;52.260;6.030;2023-06-24T01:52:16;8.2;;;7.4;;
15498;SDS011;7851;52.260;6.030;2023-06-24T01:53:16;8.8;;;7.9;;
15498;SDS011;7851;52.260;6.030;2023-06-24T01:54:16;8.9;;;8;;
15498;SDS011;7851;52.260;6.030;2023-06-24T01:55:17;8.5;;;7.7;;
15498;SDS011;7851;52.260;6.030;2023-06-24T01:56:16;9.4;;;7.9;;
15498;SDS011;7851;52.260;6.030;2023-06-24T01:57:16;9;;;8.2;;
15498;SDS011;7851;52.260;6.030;2023-06-24T01:58:16;8.6;;;7.7;;
15498;SDS011;7851;52.260;6.030;2023-06-24T01:59:16;8.3;;;7.5;;
15498;SDS011;7851;52.260;6.030;2023-06-24T02:00:16;8.6;;;7.8;;
15498;SDS011;7851;52.260;6.030;2023-06-24T02:01:19;8.2;;;7.4;;
15498;SDS011;7851;52.260;6.030;2023-06-24T02:02:20;8.2;;;7.4;;
15498;SDS011;7851;52.260;6.030;2023-06-24T02:03:16;8.5;;;7.5;;
15498;SDS011;7851;52.260;6.030;2023-06-24T02:04:16;8.5;;;7.6;;
15498;SDS011;7851;52.260;6.030;2023-06-24T02:05:17;10;;;8;;
15498;SDS011;7851;52.260;6.030;2023-06-24T02:06:16;8.7;;;7.4;;
15498;SDS011;7851;52.260;6.030;2023-06-24T02:07:16;8.5;;;7.7;;
15498;SDS011;7851;52.260;6.030;2023-06-24T02:08:16;9.2;;;8.4;;
15498;SDS011;7851;52.260;6.030;2023-06-24T02:09:16;7.9;;;6.8;;
15498;SDS011;7851;52.260;6.030;2023-06-24T02:10:16;6.7;;;6.1;;
15498;SDS011;7851;52.260;6.030;2023-06-24T02:11:16;7.2;;;6.6;;
15498;SDS011;7851;52.260;6.030;2023-06-24T02:12:16;7.3;;;6.7;;
15498;SDS011;7851;52.260;6.030;2023-06-24T02:13:16;6.4;;;5.9;;
15498;SDS011;7851;52.260;6.030;2023-06-24T02:14:16;7.7;;;6.2;;
15498;SDS011;7851;52.260;6.030;2023-06-24T02:15:16;6.2;;;5.7;;
15498;SDS011;7851;52.260;6.030;2023-06-24T02:16:17;7.8;;;7.1;;
15498;SDS011;7851;52.260;6.030;2023-06-24T02:17:16;8.3;;;7.6;;
15498;SDS011;7851;52.260;6.030;2023-06-24T02:18:16;8;;;7.2;;
15498;SDS011;7851;52.260;6.030;2023-06-24T02:19:16;7.8;;;7.1;;
15498;SDS011;7851;52.260;6.030;2023-06-24T02:20:16;9.8;;;7.8;;
15498;SDS011;7851;52.260;6.030;2023-06-24T02:21:16;8.4;;;7.5;;
15498;SDS011;7851;52.260;6.030;2023-06-24T02:22:16;9.3;;;7.8;;
15498;SDS011;7851;52.260;6.030;2023-06-24T02:23:16;8.3;;;7.5;;
15498;SDS011;7851;52.260;6.030;2023-06-24T02:24:16;8.4;;;7.6;;
15498;SDS011;7851;52.260;6.030;2023-06-24T02:25:16;8.7;;;7.9;;
15498;SDS011;7851;52.260;6.030;2023-06-24T02:26:16;7.9;;;7.3;;
15498;SDS011;7851;52.260;6.030;2023-06-24T02:27:16;8.2;;;7.5;;
15498;SDS011;7851;52.260;6.030;2023-06-24T02:28:16;9.7;;;8.9;;
15498;SDS011;7851;52.260;6.030;2023-06-24T02:29:16;10.2;;;8.6;;
15498;SDS011;7851;52.260;6.030;2023-06-24T02:30:16;7.5;;;6.8;;
15498;SDS011;7851;52.260;6.030;2023-06-24T02:31:16;8.1;;;7.3;;
15498;SDS011;7851;52.260;6.030;2023-06-24T02:32:16;8;;;7.3;;
15498;SDS011;7851;52.260;6.030;2023-06-24T02:33:16;8.5;;;7.7;;
15498;SDS011;7851;52.260;6.030;2023-06-24T02:34:16;8.8;;;6.8;;
15498;SDS011;7851;52.260;6.030;2023-06-24T02:35:16;8.6;;;7.4;;
15498;SDS011;7851;52.260;6.030;2023-06-24T02:36:16;8.5;;;7.1;;
15498;SDS011;7851;52.260;6.030;2023-06-24T02:37:16;7.8;;;7.1;;
15498;SDS011;7851;52.260;6.030;2023-06-24T02:38:16;7.8;;;7.2;;
15498;SDS011;7851;52.260;6.030;2023-06-24T02:39:16;9.1;;;8.3;;
15498;SDS011;7851;52.260;6.030;2023-06-24T02:40:16;9;;;8.2;;
15498;SDS011;7851;52.260;6.030;2023-06-24T02:41:16;9;;;8.2;;
15498;SDS011;7851;52.260;6.030;2023-06-24T02:42:16;8.7;;;7.9;;
15498;SDS011;7851;52.260;6.030;2023-06-24T02:43:16;9.8;;;8.9;;
15498;SDS011;7851;52.260;6.030;2023-06-24T02:44:16;9.5;;;8.7;;
15498;SDS011;7851;52.260;6.030;2023-06-24T02:45:16;9.1;;;8.3;;
15498;SDS011;7851;52.260;6.030;2023-06-24T02:46:16;8.8;;;8;;
15498;SDS011;7851;52.260;6.030;2023-06-24T02:47:16;8.3;;;7.4;;
15498;SDS011;7851;52.260;6.030;2023-06-24T02:48:16;9.4;;;8.5;;
15498;SDS011;7851;52.260;6.030;2023-06-24T02:49:16;7.9;;;7;;
15498;SDS011;7851;52.260;6.030;2023-06-24T02:50:16;9.3;;;8.3;;
15498;SDS011;7851;52.260;6.030;2023-06-24T02:51:16;8.9;;;8.1;;
15498;SDS011;7851;52.260;6.030;2023-06-24T02:52:16;9.6;;;8.6;;
15498;SDS011;7851;52.260;6.030;2023-06-24T02:53:16;9.1;;;8.2;;
15498;SDS011;7851;52.260;6.030;2023-06-24T02:54:16;8.9;;;8.1;;
15498;SDS011;7851;52.260;6.030;2023-06-24T02:55:16;10.5;;;9;;
15498;SDS011;7851;52.260;6.030;2023-06-24T02:56:16;10.4;;;8.9;;
15498;SDS011;7851;52.260;6.030;2023-06-24T02:57:16;9.7;;;8.3;;
15498;SDS011;7851;52.260;6.030;2023-06-24T02:58:16;9.5;;;8.7;;
15498;SDS011;7851;52.260;6.030;2023-06-24T02:59:16;10.3;;;8.8;;
15498;SDS011;7851;52.260;6.030;2023-06-24T03:00:17;9.3;;;8.4;;
15498;SDS011;7851;52.260;6.030;2023-06-24T03:01:16;9.3;;;8.4;;
15498;SDS011;7851;52.260;6.030;2023-06-24T03:02:16;10.3;;;9.4;;
15498;SDS011;7851;52.260;6.030;2023-06-24T03:03:16;10.5;;;9.5;;
15498;SDS011;7851;52.260;6.030;2023-06-24T03:04:16;11;;;9.6;;
15498;SDS011;7851;52.260;6.030;2023-06-24T03:05:16;12.1;;;9.5;;
15498;SDS011;7851;52.260;6.030;2023-06-24T03:06:16;9.6;;;8.1;;
15498;SDS011;7851;52.260;6.030;2023-06-24T03:07:16;10.7;;;9;;
15498;SDS011;7851;52.260;6.030;2023-06-24T03:08:16;10;;;9.1;;
15498;SDS011;7851;52.260;6.030;2023-06-24T03:09:16;9.7;;;8.7;;
15498;SDS011;7851;52.260;6.030;2023-06-24T03:10:16;10.6;;;9.5;;
15498;SDS011;7851;52.260;6.030;2023-06-24T03:11:16;9.2;;;8.3;;
15498;SDS011;7851;52.260;6.030;2023-06-24T03:12:16;9.8;;;8.8;;
15498;SDS011;7851;52.260;6.030;2023-06-24T03:13:16;10.7;;;9.6;;
15498;SDS011;7851;52.260;6.030;2023-06-24T03:14:16;10.4;;;9.4;;
15498;SDS011;7851;52.260;6.030;2023-06-24T03:15:16;10.2;;;9.3;;
15498;SDS011;7851;52.260;6.030;2023-06-24T03:16:16;11.5;;;10.4;;
15498;SDS011;7851;52.260;6.030;2023-06-24T03:17:16;11.3;;;10.1;;
15498;SDS011;7851;52.260;6.030;2023-06-24T03:18:16;10.6;;;9.5;;
15498;SDS011;7851;52.260;6.030;2023-06-24T03:19:16;10.3;;;9.1;;
15498;SDS011;7851;52.260;6.030;2023-06-24T03:20:16;9.5;;;8.6;;
15498;SDS011;7851;52.260;6.030;2023-06-24T03:21:16;10.7;;;9.6;;
15498;SDS011;7851;52.260;6.030;2023-06-24T03:22:16;10.5;;;9.5;;
15498;SDS011;7851;52.260;6.030;2023-06-24T03:23:16;9.5;;;8.7;;
15498;SDS011;7851;52.260;6.030;2023-06-24T03:24:16;10.2;;;9.2;;
15498;SDS011;7851;52.260;6.030;2023-06-24T03:25:16;10.4;;;9.5;;
15498;SDS011;7851;52.260;6.030;2023-06-24T03:26:16;10.6;;;9.5;;
15498;SDS011;7851;52.260;6.030;2023-06-24T03:27:16;9.9;;;9;;
15498;SDS011;7851;52.260;6.030;2023-06-24T03:28:16;10.5;;;9.4;;
15498;SDS011;7851;52.260;6.030;2023-06-24T03:29:16;10.3;;;9.1;;
15498;SDS011;7851;52.260;6.030;2023-06-24T03:30:16;10;;;9.1;;
15498;SDS011;7851;52.260;6.030;2023-06-24T03:31:16;9.6;;;8.8;;
15498;SDS011;7851;52.260;6.030;2023-06-24T03:32:16;10.2;;;9.2;;
15498;SDS011;7851;52.260;6.030;2023-06-24T03:33:16;10.1;;;9.2;;
15498;SDS011;7851;52.260;6.030;2023-06-24T03:34:16;9.9;;;8.9;;
15498;SDS011;7851;52.260;6.030;2023-06-24T03:35:16;9.3;;;8.4;;
15498;SDS011;7851;52.260;6.030;2023-06-24T03:36:16;9.2;;;8.4;;
15498;SDS011;7851;52.260;6.030;2023-06-24T03:37:16;9.5;;;8.3;;
15498;SDS011;7851;52.260;6.030;2023-06-24T03:38:16;9.4;;;8.5;;
15498;SDS011;7851;52.260;6.030;2023-06-24T03:39:16;9.5;;;8.6;;
15498;SDS011;7851;52.260;6.030;2023-06-24T03:40:16;10;;;9;;
15498;SDS011;7851;52.260;6.030;2023-06-24T03:41:16;10.2;;;9.3;;
15498;SDS011;7851;52.260;6.030;2023-06-24T03:42:16;10.1;;;9.1;;
15498;SDS011;7851;52.260;6.030;2023-06-24T03:43:16;10.5;;;9.4;;
15498;SDS011;7851;52.260;6.030;2023-06-24T03:44:16;9.4;;;8.3;;
15498;SDS011;7851;52.260;6.030;2023-06-24T03:45:16;9.5;;;8.7;;
15498;SDS011;7851;52.260;6.030;2023-06-24T03:46:16;8.7;;;7.9;;
15498;SDS011;7851;52.260;6.030;2023-06-24T03:47:16;9.6;;;8.7;;
15498;SDS011;7851;52.260;6.030;2023-06-24T03:48:16;9.6;;;8.7;;
15498;SDS011;7851;52.260;6.030;2023-06-24T03:49:16;8.8;;;8;;
15498;SDS011;7851;52.260;6.030;2023-06-24T03:50:16;9.7;;;8.8;;
15498;SDS011;7851;52.260;6.030;2023-06-24T03:51:16;8.2;;;7.6;;
15498;SDS011;7851;52.260;6.030;2023-06-24T03:52:16;8.2;;;7.4;;
15498;SDS011;7851;52.260;6.030;2023-06-24T03:53:16;8.7;;;7.9;;
15498;SDS011;7851;52.260;6.030;2023-06-24T03:54:16;9.4;;;8.4;;
15498;SDS011;7851;52.260;6.030;2023-06-24T03:55:16;9.3;;;8.4;;
15498;SDS011;7851;52.260;6.030;2023-06-24T03:56:16;9.5;;;8.6;;
15498;SDS011;7851;52.260;6.030;2023-06-24T03:57:16;9.7;;;8.5;;
15498;SDS011;7851;52.260;6.030;2023-06-24T03:58:16;10;;;8.6;;
15498;SDS011;7851;52.260;6.030;2023-06-24T03:59:16;11.4;;;7.9;;
15498;SDS011;7851;52.260;6.030;2023-06-24T04:00:16;8.6;;;7.8;;
15498;SDS011;7851;52.260;6.030;2023-06-24T04:01:16;9.1;;;8.2;;
15498;SDS011;7851;52.260;6.030;2023-06-24T04:02:16;8.7;;;7.8;;
15498;SDS011;7851;52.260;6.030;2023-06-24T04:03:16;8.9;;;8;;
15498;SDS011;7851;52.260;6.030;2023-06-24T04:04:16;9.3;;;8.5;;
15498;SDS011;7851;52.260;6.030;2023-06-24T04:05:16;8.5;;;7.7;;
15498;SDS011;7851;52.260;6.030;2023-06-24T04:06:16;9.1;;;8.3;;
15498;SDS011;7851;52.260;6.030;2023-06-24T04:07:16;12.1;;;7.8;;
15498;SDS011;7851;52.260;6.030;2023-06-24T04:08:16;8.2;;;7.4;;
15498;SDS011;7851;52.260;6.030;2023-06-24T04:09:16;9.3;;;8.3;;
15498;SDS011;7851;52.260;6.030;2023-06-24T04:10:16;9.1;;;8;;
15498;SDS011;7851;52.260;6.030;2023-06-24T04:11:16;9.3;;;8.5;;
15498;SDS011;7851;52.260;6.030;2023-06-24T04:12:16;8.7;;;7.8;;
15498;SDS011;7851;52.260;6.030;2023-06-24T04:13:16;8.5;;;7.8;;
15498;SDS011;7851;52.260;6.030;2023-06-24T04:14:16;13.1;;;8.3;;
15498;SDS011;7851;52.260;6.030;2023-06-24T04:15:16;8.7;;;8;;
15498;SDS011;7851;52.260;6.030;2023-06-24T04:16:16;10.3;;;7.8;;
15498;SDS011;7851;52.260;6.030;2023-06-24T04:17:16;9.2;;;7.3;;
15498;SDS011;7851;52.260;6.030;2023-06-24T04:18:16;8.6;;;7.8;;
15498;SDS011;7851;52.260;6.030;2023-06-24T04:19:16;8.5;;;7.8;;
15498;SDS011;7851;52.260;6.030;2023-06-24T04:20:16;8.6;;;7.8;;
15498;SDS011;7851;52.260;6.030;2023-06-24T04:21:16;8.5;;;7.7;;
15498;SDS011;7851;52.260;6.030;2023-06-24T04:22:16;8.8;;;7.9;;
15498;SDS011;7851;52.260;6.030;2023-06-24T04:23:16;7.2;;;6.6;;
15498;SDS011;7851;52.260;6.030;2023-06-24T04:24:16;7.9;;;7.2;;
15498;SDS011;7851;52.260;6.030;2023-06-24T04:25:16;7.8;;;7.2;;
15498;SDS011;7851;52.260;6.030;2023-06-24T04:26:16;8.3;;;7.5;;
15498;SDS011;7851;52.260;6.030;2023-06-24T04:27:22;8;;;6.9;;
15498;SDS011;7851;52.260;6.030;2023-06-24T04:28:19;9.2;;;7.9;;
15498;SDS011;7851;52.260;6.030;2023-06-24T04:29:20;8.6;;;7.8;;
15498;SDS011;7851;52.260;6.030;2023-06-24T04:30:24;9.6;;;7.7;;
15498;SDS011;7851;52.260;6.030;2023-06-24T04:31:16;8.4;;;7.6;;
15498;SDS011;7851;52.260;6.030;2023-06-24T04:32:16;9.3;;;8.4;;
15498;SDS011;7851;52.260;6.030;2023-06-24T04:33:16;7.9;;;7.1;;
15498;SDS011;7851;52.260;6.030;2023-06-24T04:34:16;8.8;;;7.9;;
15498;SDS011;7851;52.260;6.030;2023-06-24T04:35:16;8.6;;;7.8;;
15498;SDS011;7851;52.260;6.030;2023-06-24T04:36:16;11.4;;;7.7;;
15498;SDS011;7851;52.260;6.030;2023-06-24T04:37:16;9;;;8;;
15498;SDS011;7851;52.260;6.030;2023-06-24T04:38:16;8.5;;;7.8;;
15498;SDS011;7851;52.260;6.030;2023-06-24T04:39:16;8.5;;;7.7;;
15498;SDS011;7851;52.260;6.030;2023-06-24T04:40:22;8.7;;;6.6;;
15498;SDS011;7851;52.260;6.030;2023-06-24T04:41:16;10;;;8.2;;
15498;SDS011;7851;52.260;6.030;2023-06-24T04:42:16;8.5;;;7.6;;
15498;SDS011;7851;52.260;6.030;2023-06-24T04:43:16;8.4;;;7.6;;
15498;SDS011;7851;52.260;6.030;2023-06-24T04:44:16;9.3;;;8.5;;
15498;SDS011;7851;52.260;6.030;2023-06-24T04:45:16;9.1;;;8.1;;
15498;SDS011;7851;52.260;6.030;2023-06-24T04:46:16;8.5;;;7.7;;
15498;SDS011;7851;52.260;6.030;2023-06-24T04:47:16;10;;;7.9;;
15498;SDS011;7851;52.260;6.030;2023-06-24T04:48:16;8.6;;;7.8;;
15498;SDS011;7851;52.260;6.030;2023-06-24T04:49:16;8.4;;;7.6;;
15498;SDS011;7851;52.260;6.030;2023-06-24T04:50:16;8.2;;;7.5;;
15498;SDS011;7851;52.260;6.030;2023-06-24T04:51:16;8.9;;;7.8;;
15498;SDS011;7851;52.260;6.030;2023-06-24T04:52:16;9.2;;;8.3;;
15498;SDS011;7851;52.260;6.030;2023-06-24T04:53:16;8.9;;;8;;
15498;SDS011;7851;52.260;6.030;2023-06-24T04:54:16;8.6;;;7.8;;
15498;SDS011;7851;52.260;6.030;2023-06-24T04:55:16;8.9;;;8.1;;
15498;SDS011;7851;52.260;6.030;2023-06-24T04:56:16;15.2;;;14;;
15498;SDS011;7851;52.260;6.030;2023-06-24T04:57:23;15;;;13.8;;
15498;SDS011;7851;52.260;6.030;2023-06-24T04:58:16;14.7;;;13.6;;
15498;SDS011;7851;52.260;6.030;2023-06-24T04:59:16;16.1;;;14.8;;
15498;SDS011;7851;52.260;6.030;2023-06-24T05:00:16;17.1;;;15.6;;
15498;SDS011;7851;52.260;6.030;2023-06-24T05:01:16;15.5;;;14.3;;
15498;SDS011;7851;52.260;6.030;2023-06-24T05:02:22;15.8;;;14.5;;
15498;SDS011;7851;52.260;6.030;2023-06-24T05:03:22;16.6;;;15;;
15498;SDS011;7851;52.260;6.030;2023-06-24T05:04:16;17;;;15.4;;
15498;SDS011;7851;52.260;6.030;2023-06-24T05:05:16;16.3;;;15;;
15498;SDS011;7851;52.260;6.030;2023-06-24T05:06:16;17.1;;;15.6;;
15498;SDS011;7851;52.260;6.030;2023-06-24T05:07:16;17.1;;;15.8;;
15498;SDS011;7851;52.260;6.030;2023-06-24T05:08:16;16.1;;;14.9;;
15498;SDS011;7851;52.260;6.030;2023-06-24T05:09:17;16.9;;;15.7;;
15498;SDS011;7851;52.260;6.030;2023-06-24T05:10:16;17.7;;;16.2;;
15498;SDS011;7851;52.260;6.030;2023-06-24T05:11:16;17.6;;;16.3;;
15498;SDS011;7851;52.260;6.030;2023-06-24T05:12:16;18.4;;;17;;
15498;SDS011;7851;52.260;6.030;2023-06-24T05:13:16;18.9;;;16.7;;
15498;SDS011;7851;52.260;6.030;2023-06-24T05:14:16;17;;;15.6;;
15498;SDS011;7851;52.260;6.030;2023-06-24T05:15:16;18.1;;;16.6;;
15498;SDS011;7851;52.260;6.030;2023-06-24T05:16:16;17.8;;;16.3;;
15498;SDS011;7851;52.260;6.030;2023-06-24T05:17:16;16.7;;;15.2;;
15498;SDS011;7851;52.260;6.030;2023-06-24T05:18:16;18.2;;;16.8;;
15498;SDS011;7851;52.260;6.030;2023-06-24T05:19:16;18;;;16.5;;
15498;SDS011;7851;52.260;6.030;2023-06-24T05:20:16;18.3;;;16.8;;
15498;SDS011;7851;52.260;6.030;2023-06-24T05:21:16;17.6;;;16.1;;
15498;SDS011;7851;52.260;6.030;2023-06-24T05:22:16;18.2;;;16.7;;
15498;SDS011;7851;52.260;6.030;2023-06-24T05:23:16;18;;;16.4;;
15498;SDS011;7851;52.260;6.030;2023-06-24T05:24:16;17.6;;;16.2;;
15498;SDS011;7851;52.260;6.030;2023-06-24T05:25:16;17.4;;;16.2;;
15498;SDS011;7851;52.260;6.030;2023-06-24T05:26:16;18.1;;;16.7;;
15498;SDS011;7851;52.260;6.030;2023-06-24T05:27:16;17.7;;;16.3;;
15498;SDS011;7851;52.260;6.030;2023-06-24T05:28:16;17.6;;;16.2;;
15498;SDS011;7851;52.260;6.030;2023-06-24T05:29:16;17.5;;;15.9;;
15498;SDS011;7851;52.260;6.030;2023-06-24T05:30:17;17.8;;;16.4;;
15498;SDS011;7851;52.260;6.030;2023-06-24T05:31:16;17.6;;;16.2;;
15498;SDS011;7851;52.260;6.030;2023-06-24T05:32:16;17.6;;;16.1;;
15498;SDS011;7851;52.260;6.030;2023-06-24T05:33:16;17.2;;;15.9;;
15498;SDS011;7851;52.260;6.030;2023-06-24T05:34:16;18.5;;;16.8;;
15498;SDS011;7851;52.260;6.030;2023-06-24T05:35:16;18.7;;;17.2;;
15498;SDS011;7851;52.260;6.030;2023-06-24T05:36:16;18;;;16.6;;
15498;SDS011;7851;52.260;6.030;2023-06-24T05:37:16;17.8;;;16.5;;
15498;SDS011;7851;52.260;6.030;2023-06-24T05:38:16;18.1;;;16.6;;
15498;SDS011;7851;52.260;6.030;2023-06-24T05:39:16;19.4;;;17.7;;
15498;SDS011;7851;52.260;6.030;2023-06-24T05:40:16;19.2;;;17.5;;
15498;SDS011;7851;52.260;6.030;2023-06-24T05:41:16;19.7;;;18.1;;
15498;SDS011;7851;52.260;6.030;2023-06-24T05:42:16;19.9;;;18.3;;
15498;SDS011;7851;52.260;6.030;2023-06-24T05:43:16;18.8;;;17.4;;
15498;SDS011;7851;52.260;6.030;2023-06-24T05:44:16;19.1;;;17.4;;
15498;SDS011;7851;52.260;6.030;2023-06-24T05:45:16;19.9;;;18.2;;
15498;SDS011;7851;52.260;6.030;2023-06-24T05:46:16;19.3;;;17.8;;
15498;SDS011;7851;52.260;6.030;2023-06-24T05:47:16;20.4;;;18.6;;
15498;SDS011;7851;52.260;6.030;2023-06-24T05:48:16;19;;;17.5;;
15498;SDS011;7851;52.260;6.030;2023-06-24T05:49:16;19.7;;;18.2;;
15498;SDS011;7851;52.260;6.030;2023-06-24T05:50:16;19.8;;;18.2;;
15498;SDS011;7851;52.260;6.030;2023-06-24T05:51:16;18.8;;;17.3;;
15498;SDS011;7851;52.260;6.030;2023-06-24T05:52:16;19.3;;;17.6;;
15498;SDS011;7851;52.260;6.030;2023-06-24T05:53:16;19.7;;;18.1;;
15498;SDS011;7851;52.260;6.030;2023-06-24T05:54:16;20.2;;;18.4;;
15498;SDS011;7851;52.260;6.030;2023-06-24T05:55:16;20.8;;;18.2;;
15498;SDS011;7851;52.260;6.030;2023-06-24T05:56:16;20.2;;;18.3;;
15498;SDS011;7851;52.260;6.030;2023-06-24T05:57:16;19.7;;;18.2;;
15498;SDS011;7851;52.260;6.030;2023-06-24T05:58:16;21.5;;;19.6;;
15498;SDS011;7851;52.260;6.030;2023-06-24T05:59:16;20.9;;;19.1;;
15498;SDS011;7851;52.260;6.030;2023-06-24T06:00:17;20;;;18.5;;
15498;SDS011;7851;52.260;6.030;2023-06-24T06:01:16;21.4;;;19.4;;
15498;SDS011;7851;52.260;6.030;2023-06-24T06:02:16;20.2;;;18.6;;
15498;SDS011;7851;52.260;6.030;2023-06-24T06:03:16;20.4;;;18.6;;
15498;SDS011;7851;52.260;6.030;2023-06-24T06:04:16;20.6;;;19;;
15498;SDS011;7851;52.260;6.030;2023-06-24T06:05:16;21.3;;;19.4;;
15498;SDS011;7851;52.260;6.030;2023-06-24T06:06:16;21;;;19.2;;
15498;SDS011;7851;52.260;6.030;2023-06-24T06:07:16;21.6;;;19.8;;
15498;SDS011;7851;52.260;6.030;2023-06-24T06:08:16;23.6;;;21.6;;
15498;SDS011;7851;52.260;6.030;2023-06-24T06:09:16;23.5;;;21.6;;
15498;SDS011;7851;52.260;6.030;2023-06-24T06:10:16;21.7;;;20;;
15498;SDS011;7851;52.260;6.030;2023-06-24T06:11:16;23.4;;;21.4;;
15498;SDS011;7851;52.260;6.030;2023-06-24T06:12:16;24;;;21.9;;
15498;SDS011;7851;52.260;6.030;2023-06-24T06:13:16;22.8;;;21.1;;
15498;SDS011;7851;52.260;6.030;2023-06-24T06:14:16;21.7;;;20.2;;
15498;SDS011;7851;52.260;6.030;2023-06-24T06:15:16;23.9;;;22.1;;
15498;SDS011;7851;52.260;6.030;2023-06-24T06:16:16;24.4;;;22.4;;
15498;SDS011;7851;52.260;6.030;2023-06-24T06:17:16;24.8;;;22.9;;
15498;SDS011;7851;52.260;6.030;2023-06-24T06:18:16;24.4;;;22.5;;